createdAt,value
2023-08-17T00:03:13.299Z,24.97
2023-08-17T00:08:16.979Z,24.96
2023-08-17T00:13:29.350Z,25.00
2023-08-17T00:18:32.654Z,24.96
2023-08-17T00:23:36.311Z,24.94
2023-08-17T00:28:39.498Z,24.87
2023-08-17T00:33:42.900Z,24.77
2023-08-17T00:38:46.529Z,24.73
2023-08-17T00:43:49.832Z,24.67
2023-08-17T00:48:56.259Z,24.64
2023-08-17T00:54:03.265Z,24.67
2023-08-17T00:59:07.073Z,24.72
2023-08-17T01:04:10.717Z,24.75
2023-08-17T01:09:14.809Z,24.75
2023-08-17T01:14:28.848Z,24.69
2023-08-17T01:19:32.420Z,24.57
2023-08-17T01:24:35.783Z,24.48
2023-08-17T01:29:39.510Z,24.44
2023-08-17T01:35:00.927Z,24.43
2023-08-17T01:40:06.455Z,24.43
2023-08-17T01:45:10.126Z,24.46
2023-08-17T01:50:13.293Z,24.47
2023-08-17T01:55:16.507Z,24.38
2023-08-17T02:00:20.677Z,24.23
2023-08-17T02:05:23.912Z,24.12
2023-08-17T02:10:27.086Z,23.99
2023-08-17T02:15:40.744Z,23.98
2023-08-17T02:20:43.976Z,24.04
2023-08-17T02:25:48.725Z,24.08
2023-08-17T02:30:57.323Z,24.07
2023-08-17T02:36:00.751Z,24.04
2023-08-17T02:41:04.156Z,23.98
2023-08-17T02:46:08.621Z,23.91
2023-08-17T02:51:14.009Z,23.84
2023-08-17T02:56:17.134Z,23.80
2023-08-17T03:01:20.337Z,23.83
2023-08-17T03:06:26.048Z,23.89
2023-08-17T03:11:31.422Z,23.91
2023-08-17T03:16:41.324Z,23.89
2023-08-17T03:21:44.668Z,23.89
2023-08-17T03:26:48.127Z,23.99
2023-08-17T03:31:51.315Z,24.04
2023-08-17T03:36:54.436Z,24.00
2023-08-17T03:41:57.870Z,24.00
2023-08-17T03:47:01.177Z,23.96
2023-08-17T03:52:04.626Z,23.89
2023-08-17T03:57:07.945Z,23.80
2023-08-17T04:02:12.520Z,23.73
2023-08-17T04:07:22.640Z,23.70
2023-08-17T04:12:25.804Z,23.72
2023-08-17T04:17:29.240Z,23.84
2023-08-17T04:22:32.868Z,23.91
2023-08-17T04:27:36.180Z,23.91
2023-08-17T04:32:39.677Z,23.89
2023-08-17T04:37:42.908Z,23.86
2023-08-17T04:42:46.460Z,23.80
2023-08-17T04:47:50.389Z,23.76
2023-08-17T04:52:53.773Z,23.79
2023-08-17T04:57:56.984Z,23.78
2023-08-17T05:03:00.301Z,23.75
2023-08-17T05:08:08.750Z,23.73
2023-08-17T05:13:13.006Z,23.70
2023-08-17T05:18:16.663Z,23.67
2023-08-17T05:23:21.060Z,23.69
2023-08-17T05:28:24.333Z,23.79
2023-08-17T05:33:27.782Z,23.90
2023-08-17T05:38:31.614Z,23.90
2023-08-17T05:43:34.834Z,23.89
2023-08-17T05:48:37.914Z,23.87
2023-08-17T05:53:41.015Z,23.86
2023-08-17T05:58:44.528Z,23.84
2023-08-17T06:03:47.883Z,23.91
2023-08-17T06:08:51.031Z,23.99
2023-08-17T06:13:54.276Z,24.04
2023-08-17T06:18:57.426Z,24.11
2023-08-17T06:24:00.474Z,24.17
2023-08-17T06:29:04.525Z,24.25
2023-08-17T06:34:07.805Z,24.32
2023-08-17T06:39:10.911Z,24.45
2023-08-17T06:44:14.140Z,24.59
2023-08-17T06:49:17.256Z,24.65
2023-08-17T06:54:20.504Z,24.77
2023-08-17T06:59:23.914Z,24.82
2023-08-17T07:04:27.269Z,24.83
2023-08-17T07:09:44.420Z,24.83
2023-08-17T07:14:50.968Z,24.87
2023-08-17T07:20:14.852Z,24.92
2023-08-17T07:25:22.196Z,25.05
2023-08-17T07:30:25.666Z,25.19
2023-08-17T07:35:29.370Z,25.30
2023-08-17T07:40:35.773Z,25.45
2023-08-17T07:45:38.954Z,25.62
2023-08-17T07:50:42.330Z,25.81
2023-08-17T07:55:46.174Z,26.00
2023-08-17T08:00:49.562Z,26.15
2023-08-17T08:05:53.395Z,26.17
2023-08-17T08:10:56.565Z,26.25
2023-08-17T08:16:00.441Z,26.34
2023-08-17T08:26:33.036Z,26.55
2023-08-17T08:31:36.399Z,26.70
2023-08-17T08:36:39.735Z,26.87
2023-08-17T08:41:44.048Z,27.01
2023-08-17T08:46:49.655Z,27.15
2023-08-17T08:52:00.660Z,27.27
2023-08-17T08:57:07.643Z,27.38
2023-08-17T09:02:15.805Z,27.35
2023-08-17T09:07:19.566Z,27.36
2023-08-17T09:12:34.035Z,27.37
2023-08-17T09:17:44.269Z,27.51
2023-08-17T09:22:47.348Z,27.63
2023-08-17T09:27:50.501Z,27.74
2023-08-17T09:32:53.772Z,27.74
2023-08-17T10:27:15.248Z,29.04
2023-08-17T10:32:18.824Z,28.96
2023-08-17T10:37:23.317Z,29.10
2023-08-17T10:42:37.726Z,29.12
2023-08-17T10:47:40.954Z,29.05
2023-08-17T10:57:52.868Z,29.04
2023-08-17T11:03:03.024Z,28.93
2023-08-17T11:08:16.983Z,28.85
2023-08-17T11:13:24.978Z,28.78
2023-08-17T11:18:28.454Z,28.70
2023-08-17T11:23:33.212Z,28.60
2023-08-17T11:28:43.304Z,28.56
2023-08-17T11:33:48.528Z,28.66
2023-08-17T11:38:53.795Z,28.78
2023-08-17T11:43:57.131Z,28.90
2023-08-17T11:49:01.190Z,29.19
2023-08-17T11:54:06.323Z,29.55
2023-08-17T11:59:15.229Z,29.95
2023-08-17T12:04:18.368Z,30.40
2023-08-17T12:09:22.971Z,30.70
2023-08-17T12:14:28.373Z,30.81
2023-08-17T12:19:31.602Z,30.65
2023-08-17T12:24:36.580Z,30.26
2023-08-17T12:29:49.639Z,29.89
2023-08-17T12:34:52.840Z,29.59
2023-08-17T12:39:56.787Z,29.24
2023-08-17T12:45:01.021Z,28.63
2023-08-17T12:50:06.100Z,28.00
2023-08-17T12:55:09.520Z,27.63
2023-08-17T13:00:13.511Z,27.34
2023-08-17T13:05:16.766Z,27.11
2023-08-17T13:10:19.995Z,26.78
2023-08-17T13:15:23.985Z,26.43
2023-08-17T13:20:29.079Z,26.10
2023-08-17T13:25:34.405Z,25.89
2023-08-17T13:30:51.797Z,25.83
2023-08-17T13:35:56.034Z,25.79
2023-08-17T13:40:59.204Z,25.73
2023-08-17T13:46:02.943Z,25.72
2023-08-17T13:51:06.232Z,25.68
2023-08-17T13:56:09.636Z,25.61
2023-08-17T14:01:13.126Z,25.64
2023-08-17T14:06:17.050Z,25.79
2023-08-17T14:11:20.186Z,26.03
2023-08-17T14:16:23.593Z,26.30
2023-08-17T14:21:26.741Z,26.62
2023-08-17T14:26:45.302Z,26.87
2023-08-17T14:31:56.033Z,27.15
2023-08-17T14:36:59.513Z,27.33
2023-08-17T14:42:05.381Z,27.39
2023-08-17T14:47:09.374Z,27.40
2023-08-17T14:52:13.309Z,27.29
2023-08-17T14:57:16.405Z,27.17
2023-08-17T15:02:21.650Z,27.09
2023-08-17T15:07:25.467Z,27.00
2023-08-17T15:12:28.950Z,26.89
2023-08-17T15:17:32.072Z,26.84
2023-08-17T15:22:35.285Z,26.78
2023-08-17T15:27:40.385Z,26.69
2023-08-17T15:32:43.765Z,26.61
2023-08-17T15:37:46.985Z,26.53
2023-08-17T15:42:50.069Z,26.43
2023-08-17T15:47:53.123Z,26.35
2023-08-17T15:52:56.166Z,26.30
2023-08-17T15:57:59.644Z,26.20
2023-08-17T16:03:03.295Z,26.04
2023-08-17T16:08:06.913Z,26.01
2023-08-17T16:13:10.088Z,26.01
2023-08-17T16:18:14.935Z,26.00
2023-08-17T16:23:22.348Z,25.98
2023-08-17T16:28:27.139Z,25.94
2023-08-17T16:33:30.510Z,25.93
2023-08-17T16:38:33.833Z,25.91
2023-08-17T16:43:44.000Z,25.92
2023-08-17T16:48:47.080Z,25.89
2023-08-17T16:53:51.057Z,25.85
2023-08-17T16:58:54.820Z,25.81
2023-08-17T17:03:58.547Z,25.79
2023-08-17T17:09:01.760Z,25.77
2023-08-17T17:14:05.579Z,25.76
2023-08-17T17:19:09.064Z,25.70
2023-08-17T17:24:12.318Z,25.70
2023-08-17T17:29:15.579Z,25.63
2023-08-17T17:34:18.860Z,25.47
2023-08-17T17:39:22.049Z,25.33
2023-08-17T17:44:25.515Z,25.32
2023-08-17T17:49:28.591Z,25.37
2023-08-17T17:54:31.859Z,25.39
2023-08-17T17:59:35.158Z,25.42
2023-08-17T18:04:38.512Z,25.38
2023-08-17T18:09:47.604Z,25.27
2023-08-17T18:14:51.400Z,25.18
2023-08-17T18:19:54.710Z,25.09
2023-08-17T18:24:57.796Z,25.07
2023-08-17T18:30:01.192Z,25.13
2023-08-17T18:35:05.529Z,25.16
2023-08-17T18:40:10.978Z,25.16
2023-08-17T18:45:15.934Z,25.11
2023-08-17T18:50:19.416Z,25.14
2023-08-17T18:55:22.819Z,25.12
2023-08-17T19:00:26.226Z,25.03
2023-08-17T19:05:29.547Z,24.93
2023-08-17T19:11:02.850Z,24.78
2023-08-17T19:16:12.679Z,24.69
2023-08-17T19:21:15.769Z,24.62
2023-08-17T19:26:18.825Z,24.55
2023-08-17T19:31:22.076Z,24.49
2023-08-17T19:36:25.530Z,24.44
2023-08-17T19:41:29.524Z,24.41
2023-08-17T19:46:36.460Z,24.31
2023-08-17T19:51:49.392Z,24.25
2023-08-17T19:56:55.052Z,24.21
2023-08-17T20:01:59.920Z,24.14
2023-08-17T20:07:04.565Z,24.07
2023-08-17T20:12:08.397Z,24.03
2023-08-17T20:17:11.805Z,24.05
2023-08-17T20:22:15.449Z,24.05
2023-08-17T20:27:18.765Z,24.00
2023-08-17T20:32:21.959Z,24.00
2023-08-17T20:37:24.959Z,24.03
2023-08-17T20:42:28.141Z,24.01
2023-08-17T20:47:31.587Z,23.98
2023-08-17T20:52:34.968Z,23.93
2023-08-17T20:57:38.716Z,23.89
2023-08-17T21:02:41.884Z,23.94
2023-08-17T21:07:45.258Z,23.96
2023-08-17T21:12:48.737Z,23.92
2023-08-17T21:17:51.845Z,23.83
2023-08-17T21:22:55.097Z,23.75
2023-08-17T21:27:58.253Z,23.70
2023-08-17T21:33:01.422Z,23.61
2023-08-17T21:43:23.751Z,23.49
2023-08-17T21:48:28.469Z,23.46
2023-08-17T21:53:31.558Z,23.45
2023-08-17T21:58:34.712Z,23.48
2023-08-17T22:03:37.798Z,23.51
2023-08-17T22:08:41.059Z,23.48
2023-08-17T22:13:44.398Z,23.45
2023-08-17T22:18:47.490Z,23.48
2023-08-17T22:23:50.503Z,23.52
2023-08-17T22:28:53.501Z,23.54
2023-08-17T22:33:56.646Z,23.53
2023-08-17T22:39:09.927Z,23.52
2023-08-17T22:44:13.063Z,23.51
2023-08-17T22:49:16.397Z,23.53
2023-08-17T22:54:19.442Z,23.57
2023-08-17T22:59:23.156Z,23.56
2023-08-17T23:04:28.783Z,23.53
2023-08-17T23:09:33.167Z,23.49
2023-08-17T23:14:38.375Z,23.45
2023-08-17T23:19:58.173Z,23.43
2023-08-17T23:25:01.352Z,23.38
2023-08-17T23:30:05.359Z,23.32
2023-08-17T23:35:08.961Z,23.29
2023-08-17T23:40:12.729Z,23.31
2023-08-17T23:45:15.887Z,23.32
2023-08-17T23:50:19.166Z,23.32
2023-08-17T23:55:22.573Z,23.30
